Agana Heights, Guam
Current Conditions -  °F | °C
As of 6:54 AM on Saturday 01 Nov 2014 (Local Time) from PGUM Reporting Station
Broken Clouds Broken Clouds  
Wind Chill: 78°   Ceiling: 10000
Heat Index: 81°   Visibility: 10mi
Dew Point: 76°   Wind: 0mph
Humidity: 93%   Direction: NA
Pressure: 29.83"   Gusts: NA
Location:  13.47°N, 144.74°E
Report Text: PGUM 312054Z 00000KT 10SM BKN100 26/24 A2983 RMK AO2 SLP095 T02560244 53016
Loading
Personal Weather Stations






























Interactive Weather Map
Tropical Storm Tracking
New forecast layout! Learn more

10-Day Weather Forecast

Advertisements
Track Severe Weather on mobile